Time;durP1;ratioP1;P1;durP2;ratioP2;P2;SDS_P1;SDS_P2;PMS_P1;PMS_P2;Temp;Humidity;BMP_temperature;BMP_pressure;BME280_temperature;BME280_humidity;BME280_pressure;Samples;Min_cycle;Max_cycle;Signal;HPM_P1;HPM_P2
2021/12/19 00:02:03;;;;;;;41.23;31.07;;;3.40;70.20;;;;;;4952821;28;20206;-83
2021/12/19 00:10:00;;;;;;;36.90;29.23;;;3.50;68.60;;;;;;4953579;29;20494;-82
2021/12/19 00:12:26;;;;;;;37.40;27.57;;;3.50;68.80;;;;;;4951821;29;20513;-82
2021/12/19 00:14:51;;;;;;;34.53;27.20;;;3.40;69.60;;;;;;4952113;28;21064;-82
2021/12/19 00:17:17;;;;;;;38.40;28.53;;;3.50;69.70;;;;;;4954148;28;20179;-83
2021/12/19 00:19:43;;;;;;;38.53;31.50;;;3.50;69.40;;;;;;4952104;28;20291;-83
2021/12/19 00:22:10;;;;;;;39.87;31.80;;;3.40;70.20;;;;;;4951976;28;20185;-83
2021/12/19 00:24:36;;;;;;;37.20;27.20;;;3.40;70.60;;;;;;4952068;28;20179;-82
2021/12/19 00:27:02;;;;;;;35.17;25.60;;;3.50;69.50;;;;;;4951502;28;20415;-82
2021/12/19 00:29:27;;;;;;;34.43;26.50;;;3.40;70.00;;;;;;4951003;28;20249;-82
2021/12/19 00:31:53;;;;;;;36.17;26.83;;;3.40;70.30;;;;;;4950930;28;20587;-82
2021/12/19 00:34:19;;;;;;;37.60;28.60;;;3.40;70.10;;;;;;4951207;28;20549;-82
2021/12/19 00:36:45;;;;;;;39.03;28.80;;;3.30;70.70;;;;;;4951883;28;20186;-83
2021/12/19 00:39:11;;;;;;;36.73;30.03;;;3.40;71.20;;;;;;4951749;28;20207;-83
2021/12/19 00:41:36;;;;;;;40.27;29.80;;;3.40;70.50;;;;;;4952111;28;20186;-81
2021/12/19 00:44:14;;;;;;;41.50;32.80;;;3.40;71.10;;;;;;4953243;28;20407;-84
2021/12/19 00:46:46;;;;;;;36.17;28.47;;;3.30;71.10;;;;;;4952046;28;20262;-83
2021/12/19 00:49:13;;;;;;;38.60;30.63;;;3.30;71.40;;;;;;4953153;28;20415;-85
2021/12/19 00:51:39;;;;;;;43.73;31.27;;;3.30;71.90;;;;;;4951403;28;21024;-84
2021/12/19 00:54:09;;;;;;;36.67;29.63;;;3.30;72.50;;;;;;4952287;28;20458;-83
2021/12/19 00:56:36;;;;;;;41.10;30.13;;;3.20;72.40;;;;;;4951521;28;20179;-83
2021/12/19 00:59:02;;;;;;;39.33;29.10;;;3.30;72.30;;;;;;4951679;28;20422;-83
2021/12/19 01:01:28;;;;;;;35.70;29.03;;;3.10;72.80;;;;;;4951698;29;20549;-84
2021/12/19 01:03:54;;;;;;;41.50;30.80;;;3.10;74.10;;;;;;4951522;28;20207;-84
2021/12/19 01:06:19;;;;;;;36.20;27.30;;;3.10;73.40;;;;;;4951359;28;20371;-84
2021/12/19 01:08:47;;;;;;;35.13;28.17;;;3.20;73.50;;;;;;4951377;28;20465;-84
2021/12/19 01:11:12;;;;;;;33.80;28.43;;;3.20;73.70;;;;;;4951910;28;20182;-83
2021/12/19 01:13:38;;;;;;;37.67;30.40;;;3.20;73.20;;;;;;4951404;28;20434;-84
2021/12/19 01:16:04;;;;;;;38.90;31.17;;;3.20;74.30;;;;;;4951199;28;20222;-84
2021/12/19 01:18:30;;;;;;;41.57;31.53;;;3.10;74.00;;;;;;4951065;28;20184;-83
2021/12/19 01:20:56;;;;;;;41.50;30.47;;;3.10;74.00;;;;;;4951485;28;20553;-83
2021/12/19 01:23:29;;;;;;;41.50;30.17;;;3.20;73.50;;;;;;4951849;28;20559;-81
2021/12/19 01:25:55;;;;;;;41.67;31.53;;;3.10;73.30;;;;;;4952765;28;20251;-82
2021/12/19 01:28:21;;;;;;;38.87;30.00;;;3.10;74.90;;;;;;4950709;29;20510;-83
2021/12/19 01:30:46;;;;;;;41.77;31.73;;;3.10;74.60;;;;;;4950590;28;21076;-83
2021/12/19 01:33:12;;;;;;;37.43;29.57;;;3.20;73.40;;;;;;4951476;28;20513;-82
2021/12/19 01:35:38;;;;;;;40.70;30.57;;;3.30;73.60;;;;;;4950631;28;20186;-83
2021/12/19 01:38:04;;;;;;;36.90;28.40;;;3.30;73.20;;;;;;4950812;29;20263;-82
2021/12/19 01:40:33;;;;;;;39.10;28.73;;;3.20;73.40;;;;;;4950611;28;20199;-82
2021/12/19 01:42:59;;;;;;;40.40;29.43;;;3.30;73.30;;;;;;4949995;29;20419;-84
2021/12/19 01:45:31;;;;;;;42.87;30.70;;;3.30;73.00;;;;;;4950859;28;20425;-82
2021/12/19 01:47:59;;;;;;;35.10;27.07;;;3.30;72.80;;;;;;4951936;28;20450;-83
2021/12/19 01:50:26;;;;;;;34.50;26.80;;;3.20;73.20;;;;;;4950514;29;20454;-83
2021/12/19 01:52:52;;;;;;;33.47;26.13;;;3.20;74.40;;;;;;4950669;28;20930;-84
2021/12/19 01:55:18;;;;;;;34.87;26.30;;;3.20;74.10;;;;;;4950805;28;20423;-82
2021/12/19 01:57:45;;;;;;;40.30;27.53;;;3.10;75.10;;;;;;4950373;29;20257;-82
2021/12/19 02:00:20;;;;;;;39.33;26.30;;;3.10;74.60;;;;;;4951238;28;20598;-82
2021/12/19 02:02:46;;;;;;;32.27;25.73;;;3.10;75.80;;;;;;4952553;28;20418;-82
2021/12/19 02:05:12;;;;;;;34.50;25.47;;;3.10;75.80;;;;;;4954847;28;20421;-81
2021/12/19 02:07:38;;;;;;;35.97;27.50;;;3.20;75.00;;;;;;4954849;28;20611;-82
2021/12/19 02:10:04;;;;;;;36.47;25.33;;;3.20;75.20;;;;;;4954545;28;20485;-82
2021/12/19 02:12:30;;;;;;;27.70;21.80;;;3.10;75.20;;;;;;4954233;29;20514;-83
2021/12/19 02:14:55;;;;;;;27.40;21.60;;;3.20;74.50;;;;;;4954899;28;20477;-82
2021/12/19 02:17:21;;;;;;;29.60;23.07;;;3.10;74.40;;;;;;4955742;28;20183;-83
2021/12/19 02:19:49;;;;;;;33.37;24.63;;;3.20;74.60;;;;;;4953994;29;20288;-82
2021/12/19 02:22:15;;;;;;;29.98;21.85;;;3.20;74.10;;;;;;4954764;28;20410;-83
2021/12/19 02:24:40;;;;;;;29.23;20.20;;;3.30;73.30;;;;;;4954728;29;20180;-82
2021/12/19 02:27:06;;;;;;;26.83;19.80;;;3.20;73.40;;;;;;4953508;28;20302;-83
2021/12/19 02:29:32;;;;;;;29.37;22.70;;;3.10;73.60;;;;;;4954239;28;20188;-81
2021/12/19 02:31:57;;;;;;;28.17;20.80;;;3.10;74.70;;;;;;4954629;29;20182;-82
2021/12/19 02:34:27;;;;;;;28.40;20.93;;;3.20;75.70;;;;;;4953856;29;20181;-83
2021/12/19 02:37:01;;;;;;;26.23;19.70;;;3.20;74.40;;;;;;4954591;28;20179;-83
2021/12/19 02:50:19;;;;;;;23.37;18.27;;;3.20;71.50;;;;;;4954688;29;20422;-83
2021/12/19 02:52:46;;;;;;;25.60;19.80;;;3.10;73.00;;;;;;4953052;29;20426;-83
2021/12/19 02:55:15;;;;;;;29.00;21.02;;;3.20;73.20;;;;;;4953998;28;20430;-83
2021/12/19 02:57:40;;;;;;;28.33;21.73;;;3.00;73.20;;;;;;4953422;28;20179;-83
2021/12/19 03:00:13;;;;;;;27.20;21.80;;;3.00;75.00;;;;;;4953563;28;20986;-82
2021/12/19 03:02:39;;;;;;;32.73;23.00;;;3.00;75.30;;;;;;4955019;28;20477;-83
2021/12/19 03:05:05;;;;;;;32.90;22.93;;;3.10;75.90;;;;;;4952609;28;20516;-83
2021/12/19 03:07:32;;;;;;;27.00;19.97;;;3.00;74.80;;;;;;4954769;28;20469;-83
2021/12/19 03:17:58;;;;;;;23.27;17.50;;;2.90;76.60;;;;;;4960651;28;20513;-83
2021/12/19 03:20:29;;;;;;;23.63;20.03;;;3.00;76.70;;;;;;4952148;29;20467;-84
2021/12/19 03:22:59;;;;;;;26.70;20.10;;;3.00;74.90;;;;;;4953070;28;20407;-84
2021/12/19 03:25:26;;;;;;;25.45;20.02;;;3.00;75.80;;;;;;4952686;29;20415;-83
2021/12/19 03:27:52;;;;;;;27.73;21.50;;;3.00;75.70;;;;;;4952703;28;20176;-83
2021/12/19 03:30:18;;;;;;;25.33;19.13;;;3.00;75.70;;;;;;4952352;28;20437;-82
2021/12/19 03:32:44;;;;;;;24.40;19.10;;;3.10;75.60;;;;;;4952078;28;20186;-82
2021/12/19 03:35:11;;;;;;;26.00;19.70;;;3.00;74.20;;;;;;4952770;28;20423;-82
2021/12/19 03:37:37;;;;;;;27.73;20.60;;;3.00;74.80;;;;;;4951780;28;20944;-82
2021/12/19 03:40:12;;;;;;;25.70;19.70;;;3.00;75.80;;;;;;4952583;28;20545;-82
2021/12/19 03:42:39;;;;;;;28.00;20.00;;;3.00;77.60;;;;;;4953588;28;20426;-81
2021/12/19 03:45:08;;;;;;;21.87;17.77;;;3.00;78.60;;;;;;4952562;28;20422;-82
2021/12/19 03:47:35;;;;;;;21.87;17.50;;;3.10;76.70;;;;;;4952028;29;20414;-83
2021/12/19 03:50:03;;;;;;;23.40;16.57;;;3.00;75.50;;;;;;4952437;29;20419;-83
2021/12/19 03:52:30;;;;;;;18.33;14.67;;;3.00;75.70;;;;;;4936841;29;20493;-82
2021/12/19 03:54:56;;;;;;;18.33;14.60;;;2.90;73.60;;;;;;4952126;28;20411;-82
2021/12/19 03:57:22;;;;;;;22.87;17.00;;;2.90;75.00;;;;;;4952079;28;20447;-84
2021/12/19 03:59:49;;;;;;;19.17;15.80;;;3.00;74.20;;;;;;4953585;28;20879;-82
2021/12/19 04:02:25;;;;;;;22.00;16.23;;;2.90;73.50;;;;;;4951537;28;20179;-81
2021/12/19 04:04:51;;;;;;;19.87;15.93;;;2.90;74.80;;;;;;4952049;28;20910;-82
2021/12/19 04:07:17;;;;;;;18.30;15.90;;;2.90;74.90;;;;;;4953673;28;20419;-82
2021/12/19 04:09:43;;;;;;;18.10;14.00;;;2.90;74.70;;;;;;4951986;28;20431;-82
2021/12/19 04:12:09;;;;;;;20.27;15.53;;;2.90;75.60;;;;;;4951956;28;20458;-82
2021/12/19 04:14:35;;;;;;;20.80;14.83;;;3.00;75.20;;;;;;4951330;28;20246;-83
2021/12/19 04:17:01;;;;;;;18.43;14.83;;;3.00;73.90;;;;;;4951466;28;20546;-83
2021/12/19 04:19:28;;;;;;;18.33;14.87;;;2.80;73.10;;;;;;4952617;28;20517;-83
2021/12/19 04:21:55;;;;;;;16.67;14.83;;;2.90;75.30;;;;;;4953399;28;20279;-83
2021/12/19 04:24:20;;;;;;;17.27;13.80;;;2.90;75.60;;;;;;4952733;28;20459;-82
2021/12/19 04:26:46;;;;;;;17.10;13.93;;;3.00;75.70;;;;;;4952525;29;20470;-83
2021/12/19 04:29:12;;;;;;;18.00;14.40;;;3.00;75.50;;;;;;4952563;28;20176;-84
2021/12/19 04:31:40;;;;;;;17.63;15.00;;;3.00;74.30;;;;;;4952941;29;20550;-85
2021/12/19 04:34:06;;;;;;;18.83;15.67;;;2.90;73.80;;;;;;4952938;28;20426;-84
2021/12/19 04:36:37;;;;;;;18.03;14.20;;;3.00;73.20;;;;;;4954531;28;20490;-84
2021/12/19 04:44:33;;;;;;;17.53;14.70;;;2.90;75.60;;;;;;4955191;28;20418;-83
2021/12/19 05:00:19;;;;;;;16.50;13.38;;;3.00;73.20;;;;;;4954833;28;20446;-83
2021/12/19 05:03:00;;;;;;;17.93;13.37;;;3.10;72.60;;;;;;4953432;28;20589;-83
2021/12/19 05:16:14;;;;;;;17.10;12.97;;;3.00;75.70;;;;;;4954350;29;20445;-83
2021/12/19 05:18:43;;;;;;;14.77;11.90;;;3.10;75.80;;;;;;4953641;28;20426;-80
2021/12/19 05:21:23;;;;;;;17.60;13.07;;;3.10;74.70;;;;;;4953149;28;20478;-82
2021/12/19 05:24:05;;;;;;;14.67;12.57;;;2.90;75.00;;;;;;4953305;29;20403;-82
2021/12/19 05:26:30;;;;;;;16.97;12.17;;;2.90;75.20;;;;;;4954566;28;20422;-82
2021/12/19 05:28:57;;;;;;;16.07;13.33;;;3.00;74.90;;;;;;4953503;28;20423;-82
2021/12/19 05:31:23;;;;;;;14.83;12.70;;;3.00;75.70;;;;;;4953054;29;20202;-83
2021/12/19 05:33:51;;;;;;;16.63;13.40;;;3.00;75.80;;;;;;4953145;28;21146;-82
2021/12/19 05:44:11;;;;;;;17.23;13.43;;;2.90;75.60;;;;;;4952184;29;20411;-83
2021/12/19 05:47:05;;;;;;;17.77;14.40;;;2.90;74.10;;;;;;4954631;29;20490;-83
2021/12/19 05:49:31;;;;;;;19.30;14.50;;;2.90;74.00;;;;;;4953807;28;20502;-83
2021/12/19 05:51:57;;;;;;;18.40;14.33;;;2.80;74.40;;;;;;4953677;28;20179;-85
2021/12/19 05:54:23;;;;;;;16.77;12.80;;;2.80;73.70;;;;;;4953419;28;20411;-83
2021/12/19 05:56:49;;;;;;;16.90;13.47;;;2.80;74.40;;;;;;4953363;29;20425;-84
2021/12/19 05:59:16;;;;;;;16.10;12.97;;;2.80;73.50;;;;;;4953079;28;20206;-85
2021/12/19 06:01:43;;;;;;;15.80;12.63;;;2.80;72.60;;;;;;4953009;28;20477;-86
2021/12/19 06:04:09;;;;;;;15.50;11.75;;;2.80;72.70;;;;;;4954629;28;20896;-85
2021/12/19 06:06:35;;;;;;;15.60;11.73;;;2.70;71.20;;;;;;4953088;29;20175;-85
2021/12/19 06:09:01;;;;;;;14.43;11.30;;;2.80;72.60;;;;;;4953349;28;20938;-85
2021/12/19 06:11:27;;;;;;;15.43;12.00;;;2.80;72.40;;;;;;4953249;28;20179;-84
2021/12/19 06:13:52;;;;;;;13.70;11.30;;;2.60;71.90;;;;;;4953910;29;20193;-84
2021/12/19 06:16:18;;;;;;;14.10;10.87;;;2.70;72.20;;;;;;4952945;29;20186;-84
2021/12/19 06:18:47;;;;;;;14.20;11.30;;;2.70;72.30;;;;;;4953074;28;20430;-83
2021/12/19 06:21:12;;;;;;;15.47;11.30;;;2.70;72.60;;;;;;4952302;28;20203;-85
2021/12/19 06:23:39;;;;;;;13.03;10.97;;;2.70;71.20;;;;;;4951868;28;20974;-84
2021/12/19 06:26:05;;;;;;;14.60;10.50;;;2.60;72.50;;;;;;4952412;28;20186;-83
2021/12/19 06:28:31;;;;;;;12.40;9.90;;;2.60;72.90;;;;;;4952952;28;20505;-85
2021/12/19 06:30:56;;;;;;;13.30;11.20;;;2.50;73.50;;;;;;4952548;28;20522;-84
2021/12/19 06:33:22;;;;;;;16.13;11.80;;;2.40;74.70;;;;;;4952965;28;20182;-84
2021/12/19 06:35:48;;;;;;;15.60;10.80;;;2.50;76.20;;;;;;4953290;28;20187;-83
2021/12/19 06:38:15;;;;;;;16.60;12.17;;;2.60;75.20;;;;;;4952858;28;20175;-84
2021/12/19 06:40:41;;;;;;;15.95;11.88;;;2.50;75.20;;;;;;4952728;28;20211;-83
2021/12/19 06:43:07;;;;;;;17.33;13.20;;;2.50;75.20;;;;;;4954085;29;20182;-84
2021/12/19 06:45:33;;;;;;;15.20;12.00;;;2.50;75.20;;;;;;4952922;28;20210;-82
2021/12/19 06:48:01;;;;;;;15.20;12.60;;;2.50;75.20;;;;;;4953623;28;20451;-83
2021/12/19 06:50:28;;;;;;;17.27;12.80;;;2.50;76.00;;;;;;4956395;29;20431;-84
2021/12/19 06:52:53;;;;;;;14.27;11.83;;;2.50;76.60;;;;;;4956108;28;20438;-84
2021/12/19 06:55:19;;;;;;;15.10;12.73;;;2.60;75.00;;;;;;4956158;29;20421;-84
2021/12/19 06:57:46;;;;;;;16.27;12.50;;;2.50;75.20;;;;;;4956276;29;20190;-84
2021/12/19 07:00:16;;;;;;;14.02;11.52;;;2.60;76.00;;;;;;4955947;29;20459;-84
2021/12/19 07:02:42;;;;;;;14.37;10.57;;;2.60;75.40;;;;;;4956324;28;20609;-83
2021/12/19 07:05:08;;;;;;;11.70;10.00;;;2.60;75.80;;;;;;4956159;29;20790;-84
2021/12/19 07:07:34;;;;;;;12.90;11.07;;;2.50;75.80;;;;;;4955926;28;20426;-83
2021/12/19 07:10:00;;;;;;;10.83;9.60;;;2.50;75.20;;;;;;4955918;29;21013;-85
2021/12/19 07:12:26;;;;;;;12.50;10.50;;;2.60;76.40;;;;;;4955966;29;20219;-83
2021/12/19 07:14:57;;;;;;;11.15;9.52;;;2.70;75.40;;;;;;4955387;28;20537;-84
2021/12/19 07:17:23;;;;;;;11.30;10.10;;;2.60;75.10;;;;;;4955989;29;20183;-83
2021/12/19 07:19:49;;;;;;;9.00;7.60;;;2.60;74.70;;;;;;4955745;28;20466;-84
2021/12/19 07:22:15;;;;;;;10.77;9.27;;;2.50;74.60;;;;;;4955486;29;20183;-83
2021/12/19 07:24:41;;;;;;;10.32;8.32;;;2.60;75.40;;;;;;4955471;29;20420;-82
2021/12/19 07:27:07;;;;;;;9.60;7.73;;;2.60;75.30;;;;;;4955800;28;20710;-83
2021/12/19 07:29:33;;;;;;;11.93;9.60;;;2.60;75.10;;;;;;4955209;28;20180;-83
2021/12/19 07:32:00;;;;;;;11.88;9.52;;;2.60;75.20;;;;;;4954738;28;20451;-83
2021/12/19 07:34:31;;;;;;;9.37;8.03;;;2.50;74.70;;;;;;4954924;28;20187;-83
2021/12/19 07:36:57;;;;;;;9.50;8.13;;;2.60;75.30;;;;;;4954415;28;20419;-83
2021/12/19 07:39:37;;;;;;;8.60;7.70;;;2.70;74.30;;;;;;4954629;28;20437;-83
2021/12/19 07:42:06;;;;;;;8.33;7.17;;;2.60;74.10;;;;;;4955185;28;20499;-84
2021/12/19 07:44:33;;;;;;;7.30;6.53;;;2.70;75.00;;;;;;4955575;28;20805;-85
2021/12/19 07:46:58;;;;;;;8.47;6.70;;;2.60;74.60;;;;;;4954938;28;20458;-82
2021/12/19 07:49:24;;;;;;;9.57;7.63;;;2.50;73.50;;;;;;4955262;28;20474;-84
2021/12/19 07:51:50;;;;;;;10.90;8.40;;;2.50;74.50;;;;;;4944840;28;20177;-84
2021/12/19 07:54:15;;;;;;;8.60;7.40;;;2.60;75.40;;;;;;4953412;29;20180;-86
2021/12/19 07:56:41;;;;;;;9.73;8.00;;;2.60;74.30;;;;;;4958120;29;20644;-85
2021/12/19 07:59:07;;;;;;;17.67;9.10;;;2.80;75.50;;;;;;4952141;29;20536;-84
2021/12/19 08:01:34;;;;;;;8.63;7.70;;;2.90;76.20;;;;;;4957148;29;20286;-85
2021/12/19 08:03:59;;;;;;;8.73;7.50;;;3.00;75.90;;;;;;4940889;29;20417;-84
2021/12/19 08:06:25;;;;;;;8.40;6.67;;;3.00;75.20;;;;;;4953614;29;20907;-85
2021/12/19 08:08:54;;;;;;;9.43;7.20;;;3.00;73.80;;;;;;4952455;29;20668;-79
2021/12/19 08:14:04;;;;;;;8.10;7.30;;;2.90;72.60;;;;;;4936712;29;20443;-82
2021/12/19 08:16:30;;;;;;;7.33;6.63;;;2.90;72.90;;;;;;4951118;29;20447;-81
2021/12/19 08:18:56;;;;;;;9.20;6.90;;;3.00;74.20;;;;;;4951015;28;20464;-80
2021/12/19 08:21:21;;;;;;;10.03;7.00;;;3.00;73.80;;;;;;4950922;29;20337;-80
2021/12/19 08:23:47;;;;;;;8.87;7.00;;;3.10;74.10;;;;;;4951119;29;20176;-82
2021/12/19 08:26:13;;;;;;;7.00;5.90;;;3.10;74.70;;;;;;4951152;29;20184;-79
2021/12/19 08:28:39;;;;;;;7.90;5.40;;;3.10;73.40;;;;;;4950684;29;20197;-80
2021/12/19 08:31:05;;;;;;;7.10;5.90;;;3.00;73.40;;;;;;4951104;29;20195;-82
2021/12/19 08:33:30;;;;;;;9.60;7.17;;;3.10;73.40;;;;;;4950868;29;20447;-82
2021/12/19 08:35:57;;;;;;;5.70;5.10;;;3.10;72.40;;;;;;4950533;29;20427;-81
2021/12/19 08:38:23;;;;;;;6.60;5.90;;;3.10;71.50;;;;;;4964110;28;20583;-81
2021/12/19 08:40:51;;;;;;;6.07;4.83;;;3.10;71.40;;;;;;4953557;29;20486;-81
2021/12/19 08:43:19;;;;;;;6.87;5.80;;;3.10;70.90;;;;;;4953183;28;21108;-81
2021/12/19 08:45:45;;;;;;;8.07;6.37;;;3.00;71.00;;;;;;4954792;29;20428;-81
2021/12/19 08:48:11;;;;;;;8.93;6.63;;;3.10;73.10;;;;;;4969456;28;20418;-81
2021/12/19 08:50:36;;;;;;;7.60;6.77;;;3.10;72.40;;;;;;4953134;28;20422;-81
2021/12/19 08:53:03;;;;;;;7.13;6.43;;;3.10;71.70;;;;;;4953234;29;20454;-81
2021/12/19 08:55:28;;;;;;;8.63;6.47;;;3.00;71.20;;;;;;4953487;29;20430;-81
2021/12/19 08:57:54;;;;;;;7.40;6.27;;;3.10;73.10;;;;;;4953177;29;20986;-81
2021/12/19 09:00:21;;;;;;;7.70;6.40;;;3.20;72.30;;;;;;4952977;29;20258;-81
2021/12/19 09:02:51;;;;;;;6.50;5.90;;;3.20;72.60;;;;;;4953273;28;20222;-81
2021/12/19 09:05:18;;;;;;;5.40;4.90;;;3.20;70.90;;;;;;4953089;28;20423;-82
2021/12/19 09:07:43;;;;;;;9.83;6.30;;;3.20;71.80;;;;;;4953296;29;20773;-81
2021/12/19 09:10:10;;;;;;;6.33;5.70;;;3.20;72.10;;;;;;4952988;29;20437;-82
2021/12/19 09:12:36;;;;;;;6.67;6.03;;;3.20;71.50;;;;;;4951874;28;20206;-82
2021/12/19 09:15:04;;;;;;;5.77;4.97;;;3.20;71.00;;;;;;4952253;28;20439;-81
2021/12/19 09:17:30;;;;;;;6.87;6.13;;;3.10;71.50;;;;;;4968627;28;20423;-81
2021/12/19 09:19:55;;;;;;;6.23;5.73;;;3.30;72.40;;;;;;4952674;29;20837;-81
2021/12/19 09:22:21;;;;;;;6.20;5.60;;;3.30;72.20;;;;;;4968729;28;20419;-80
2021/12/19 09:24:47;;;;;;;5.40;4.73;;;3.40;72.10;;;;;;4952797;29;20185;-81
2021/12/19 09:27:13;;;;;;;7.03;5.47;;;3.40;70.20;;;;;;4952707;28;20175;-81
2021/12/19 09:29:39;;;;;;;6.37;4.60;;;3.30;68.70;;;;;;4951861;28;20949;-82
2021/12/19 09:32:05;;;;;;;4.83;4.30;;;3.20;69.90;;;;;;4952554;28;20167;-81
2021/12/19 09:34:30;;;;;;;3.83;3.53;;;3.30;71.20;;;;;;4952369;28;20207;-81
2021/12/19 09:36:57;;;;;;;4.03;3.30;;;3.20;68.00;;;;;;4951781;28;20462;-82
2021/12/19 09:39:24;;;;;;;4.03;3.73;;;3.20;70.30;;;;;;4951005;28;20194;-81
2021/12/19 09:42:00;;;;;;;8.20;7.20;;;3.20;70.40;;;;;;4937215;28;20975;-80
2021/12/19 09:44:26;;;;;;;4.63;4.23;;;3.20;68.30;;;;;;4931717;29;20459;-81
2021/12/19 09:46:52;;;;;;;6.20;4.63;;;3.20;68.60;;;;;;4931020;29;20467;-81
2021/12/19 09:49:19;;;;;;;4.80;4.30;;;3.30;71.20;;;;;;4931721;29;20420;-82
2021/12/19 09:51:47;;;;;;;7.50;4.93;;;3.40;71.20;;;;;;4931825;29;20430;-81
2021/12/19 09:54:14;;;;;;;6.17;4.80;;;3.40;70.50;;;;;;4931993;29;20431;-82
2021/12/19 09:56:40;;;;;;;3.50;3.20;;;3.40;71.20;;;;;;4932264;29;20898;-82
2021/12/19 09:59:16;;;;;;;3.57;3.27;;;3.50;69.00;;;;;;4931838;29;20463;-81
2021/12/19 10:01:42;;;;;;;3.00;2.80;;;3.50;68.70;;;;;;4931990;29;20467;-84
2021/12/19 10:04:45;;;;;;;4.70;3.93;;;3.50;68.90;;;;;;4931902;29;20423;-84
2021/12/19 10:07:18;;;;;;;3.50;3.20;;;3.50;67.90;;;;;;4933854;29;20434;-82
2021/12/19 10:10:00;;;;;;;3.53;3.23;;;3.40;66.50;;;;;;4932243;29;20507;-82
2021/12/19 10:15:10;;;;;;;3.13;2.83;;;3.50;66.30;;;;;;4934389;29;20467;-85
2021/12/19 10:17:37;;;;;;;3.80;3.50;;;3.40;66.20;;;;;;4933424;29;20419;-85
2021/12/19 10:20:08;;;;;;;4.57;3.50;;;3.30;67.90;;;;;;4932673;29;20570;-86
2021/12/19 10:22:51;;;;;;;3.10;2.70;;;3.40;68.60;;;;;;4932686;29;20416;-85
2021/12/19 10:25:30;;;;;;;2.80;2.60;;;3.40;67.50;;;;;;4937213;29;20483;-86
2021/12/19 10:28:03;;;;;;;2.50;2.30;;;3.50;68.20;;;;;;4937969;29;20934;-86
2021/12/19 10:30:35;;;;;;;2.73;2.53;;;3.50;67.20;;;;;;4943353;28;20894;-85
2021/12/19 10:33:03;;;;;;;3.10;2.80;;;3.50;66.80;;;;;;4956584;29;20423;-87
2021/12/19 10:35:47;;;;;;;3.47;3.17;;;3.40;67.60;;;;;;4956225;29;20453;-87
2021/12/19 10:38:19;;;;;;;3.27;2.97;;;3.50;68.70;;;;;;4957391;29;21155;-86
2021/12/19 10:40:52;;;;;;;3.23;3.00;;;3.50;68.70;;;;;;4957462;28;20480;-84
2021/12/19 10:43:18;;;;;;;4.33;3.93;;;3.50;66.70;;;;;;4957569;29;20451;-86
2021/12/19 10:45:57;;;;;;;5.40;3.60;;;3.50;67.00;;;;;;4956770;29;20423;-88
2021/12/19 10:48:31;;;;;;;3.90;3.60;;;3.50;67.20;;;;;;4956799;29;20426;-85
2021/12/19 10:51:01;;;;;;;3.70;3.40;;;3.60;66.40;;;;;;4961623;28;20433;-88
2021/12/19 10:53:31;;;;;;;3.30;2.50;;;3.70;65.60;;;;;;4964792;28;20423;-89
2021/12/19 10:56:14;;;;;;;3.73;3.40;;;3.60;65.20;;;;;;4964695;28;20418;-89
2021/12/19 10:58:56;;;;;;;3.97;3.57;;;3.50;65.80;;;;;;4947657;28;20527;-88
2021/12/19 11:01:36;;;;;;;2.40;2.20;;;3.50;66.30;;;;;;4943319;29;20459;-89
2021/12/19 11:04:08;;;;;;;3.37;3.07;;;3.40;67.10;;;;;;4943909;29;20431;-89
2021/12/19 11:06:59;;;;;;;3.60;3.30;;;3.50;65.60;;;;;;4939985;29;20423;-88
2021/12/19 11:09:37;;;;;;;3.70;3.40;;;3.60;64.30;;;;;;4941097;29;20421;-92
2021/12/19 11:12:03;;;;;;;3.90;3.60;;;3.50;63.60;;;;;;4943465;29;21157;-89
2021/12/19 11:14:45;;;;;;;3.53;3.17;;;3.40;64.90;;;;;;4956096;29;20447;-86
2021/12/19 11:17:20;;;;;;;3.80;3.50;;;3.30;66.20;;;;;;4940153;29;20420;-88
2021/12/19 11:19:51;;;;;;;5.40;4.90;;;3.30;67.20;;;;;;4940717;29;20426;-88
2021/12/19 11:22:25;;;;;;;4.33;3.93;;;3.50;66.30;;;;;;4925914;29;20456;-87
2021/12/19 11:25:10;;;;;;;5.37;4.70;;;3.40;66.20;;;;;;4941093;29;20435;-87
2021/12/19 11:27:39;;;;;;;4.27;3.83;;;3.40;67.30;;;;;;4939568;29;20471;-87
2021/12/19 11:30:05;;;;;;;5.67;5.17;;;3.40;66.80;;;;;;4940575;29;20427;-87
2021/12/19 11:32:42;;;;;;;6.67;4.23;;;3.40;68.40;;;;;;4942363;29;20479;-89
2021/12/19 11:35:12;;;;;;;4.97;4.27;;;3.30;66.80;;;;;;4955354;28;20430;-87
2021/12/19 11:37:42;;;;;;;5.50;4.60;;;3.40;66.30;;;;;;4940629;29;20426;-89
2021/12/19 11:40:09;;;;;;;4.80;4.40;;;3.40;66.20;;;;;;4939231;29;20811;-84
2021/12/19 11:42:59;;;;;;;5.20;4.63;;;3.40;65.70;;;;;;4937167;29;20210;-88
2021/12/19 11:45:46;;;;;;;5.50;4.00;;;3.50;66.30;;;;;;4939031;29;20416;-88
2021/12/19 11:48:24;;;;;;;4.67;4.27;;;3.50;64.90;;;;;;4941101;29;20420;-90
2021/12/19 11:50:53;;;;;;;4.47;4.07;;;3.30;65.50;;;;;;4939638;29;20412;-89
2021/12/19 11:53:20;;;;;;;4.40;3.80;;;3.40;66.60;;;;;;4940917;29;20431;-89
2021/12/19 11:55:49;;;;;;;5.20;4.70;;;3.40;65.40;;;;;;4948600;29;20415;-89
2021/12/19 11:58:16;;;;;;;5.50;4.97;;;3.40;66.20;;;;;;4951478;29;20432;-89
2021/12/19 12:00:56;;;;;;;4.83;4.43;;;3.50;66.30;;;;;;4958944;29;20452;-89
2021/12/19 12:03:29;;;;;;;5.67;5.17;;;3.50;66.30;;;;;;4957443;29;20423;-89
2021/12/19 12:05:57;;;;;;;4.27;3.87;;;3.50;64.80;;;;;;4942919;29;20420;-90
2021/12/19 12:08:26;;;;;;;4.53;4.23;;;3.40;64.50;;;;;;4958670;29;20412;-91
2021/12/19 12:10:57;;;;;;;5.20;4.80;;;3.20;66.70;;;;;;4941526;29;20544;-89
2021/12/19 12:13:34;;;;;;;4.70;4.30;;;3.10;66.70;;;;;;4951942;29;20434;-85
2021/12/19 12:16:33;;;;;;;5.33;4.80;;;3.20;67.60;;;;;;4935932;29;20432;-81
2021/12/19 12:19:04;;;;;;;5.00;4.60;;;3.30;67.20;;;;;;4951090;28;20420;-83
2021/12/19 12:21:46;;;;;;;5.43;4.93;;;3.30;66.70;;;;;;4936418;29;20478;-85
2021/12/19 12:24:18;;;;;;;6.40;5.90;;;3.40;66.20;;;;;;4936447;29;20403;-80
2021/12/19 12:26:49;;;;;;;6.47;5.87;;;3.30;66.40;;;;;;4934869;29;20482;-81
2021/12/19 12:29:16;;;;;;;5.83;5.33;;;3.30;67.30;;;;;;4950895;29;20459;-83
2021/12/19 12:31:44;;;;;;;5.50;5.00;;;3.30;66.20;;;;;;4935303;29;20428;-82
2021/12/19 12:34:12;;;;;;;4.90;4.50;;;3.20;67.60;;;;;;4934964;29;20416;-85
2021/12/19 12:36:39;;;;;;;4.40;4.00;;;3.30;67.90;;;;;;4936303;28;20435;-87
2021/12/19 12:39:17;;;;;;;6.10;5.57;;;3.30;67.30;;;;;;4936454;29;20430;-84
2021/12/19 12:44:22;;;;;;;5.70;5.13;;;3.30;67.90;;;;;;4953405;29;20426;-82
2021/12/19 12:46:50;;;;;;;5.70;5.20;;;3.30;67.50;;;;;;4951436;28;20426;-84
2021/12/19 12:49:24;;;;;;;6.10;5.60;;;3.30;67.90;;;;;;4953731;28;20411;-86
2021/12/19 12:51:56;;;;;;;6.17;5.57;;;3.40;67.40;;;;;;4952905;28;20418;-84
2021/12/19 12:54:33;;;;;;;5.73;5.23;;;3.40;67.20;;;;;;4966416;28;20476;-86
2021/12/19 12:57:01;;;;;;;6.83;6.17;;;3.40;66.90;;;;;;4952513;28;20450;-85
2021/12/19 12:59:33;;;;;;;6.00;5.50;;;3.40;67.40;;;;;;4952271;29;20419;-84
2021/12/19 13:02:11;;;;;;;6.80;6.10;;;3.40;66.80;;;;;;4952055;28;20442;-85
2021/12/19 13:04:38;;;;;;;5.60;5.10;;;3.50;67.40;;;;;;4952285;29;20423;-84
2021/12/19 13:07:15;;;;;;;5.90;5.40;;;3.50;67.00;;;;;;4952197;29;20500;-84
2021/12/19 13:09:43;;;;;;;5.90;5.30;;;3.50;66.80;;;;;;4951724;29;20517;-84
2021/12/19 13:12:18;;;;;;;7.93;7.13;;;3.50;67.30;;;;;;4952101;29;20962;-85
2021/12/19 13:15:01;;;;;;;6.67;6.07;;;3.50;67.30;;;;;;4951879;29;20442;-85
2021/12/19 13:17:28;;;;;;;7.20;6.50;;;3.50;67.00;;;;;;4951948;29;20695;-84
2021/12/19 13:19:56;;;;;;;6.67;6.07;;;3.50;67.30;;;;;;4951955;28;20521;-83
2021/12/19 13:22:47;;;;;;;6.47;5.90;;;3.50;67.20;;;;;;4952011;29;20441;-83
2021/12/19 13:25:15;;;;;;;6.17;5.57;;;3.50;67.30;;;;;;4951637;29;20473;-85
2021/12/19 13:27:47;;;;;;;5.57;5.07;;;3.50;67.60;;;;;;4952063;29;20449;-83
2021/12/19 13:30:14;;;;;;;6.67;6.07;;;3.50;68.20;;;;;;4952038;28;20419;-84
2021/12/19 13:32:48;;;;;;;7.13;6.50;;;3.50;67.50;;;;;;4951765;29;20423;-85
2021/12/19 13:35:19;;;;;;;6.80;6.20;;;3.40;67.10;;;;;;4951972;29;20431;-84
2021/12/19 13:37:49;;;;;;;6.57;6.07;;;3.30;67.60;;;;;;4951695;29;20445;-84
2021/12/19 13:40:16;;;;;;;7.03;6.43;;;3.40;68.90;;;;;;4951246;29;21050;-84
2021/12/19 13:42:46;;;;;;;6.83;6.20;;;3.40;69.30;;;;;;4951896;29;20419;-84
2021/12/19 13:45:20;;;;;;;7.27;6.57;;;3.40;69.50;;;;;;4951630;28;20422;-84
2021/12/19 13:47:47;;;;;;;7.30;6.60;;;3.50;68.20;;;;;;4952955;28;20417;-85
2021/12/19 13:50:14;;;;;;;7.13;6.47;;;3.40;68.00;;;;;;4950837;29;20646;-85
2021/12/19 13:52:40;;;;;;;7.23;6.53;;;3.60;68.20;;;;;;4950356;28;20850;-85
2021/12/19 13:55:11;;;;;;;6.67;6.07;;;3.60;68.70;;;;;;4949963;29;20470;-84
2021/12/19 13:57:37;;;;;;;7.72;7.03;;;3.60;66.50;;;;;;4950881;28;20610;-85
2021/12/19 14:00:06;;;;;;;6.70;5.97;;;3.60;67.30;;;;;;4950860;28;20207;-85
2021/12/19 14:02:39;;;;;;;8.33;7.60;;;3.50;68.00;;;;;;4951593;29;20411;-85
2021/12/19 14:05:29;;;;;;;8.87;8.07;;;3.50;69.20;;;;;;4952103;29;20481;-85
2021/12/19 14:07:55;;;;;;;6.93;6.23;;;3.50;69.50;;;;;;4945593;28;20426;-85